createdAt,value
2018-06-09T19:26:22.019Z,20.77
2018-06-09T19:28:50.556Z,20.73
2018-06-09T19:31:19.060Z,20.69
2018-06-09T19:33:47.594Z,20.64
2018-06-09T19:36:16.131Z,20.59
2018-06-09T19:38:44.630Z,20.69
2018-06-09T19:41:13.189Z,20.74
2018-06-09T19:43:41.726Z,20.75
2018-06-09T19:46:10.262Z,20.72
2018-06-09T19:48:38.788Z,20.68
2018-06-09T19:51:07.345Z,20.62
2018-06-09T19:53:36.201Z,20.57
2018-06-09T19:56:04.876Z,20.57
2018-06-09T19:58:33.405Z,20.54
2018-06-09T20:01:01.938Z,20.30
2018-06-09T20:03:31.478Z,20.43
2018-06-09T20:06:00.078Z,20.28
2018-06-09T20:08:28.672Z,20.21
2018-06-09T20:10:57.265Z,20.14
2018-06-09T20:13:25.995Z,20.11
2018-06-09T20:15:54.928Z,20.07
2018-06-09T20:18:23.605Z,20.06
2018-06-09T20:20:52.250Z,20.03
2018-06-09T20:23:21.638Z,19.92
2018-06-09T20:25:50.387Z,19.86
2018-06-09T20:28:19.109Z,19.85
2018-06-09T20:30:47.750Z,19.85
2018-06-09T20:33:16.599Z,19.82
2018-06-09T20:35:45.433Z,19.80
2018-06-09T20:38:14.198Z,19.04
2018-06-09T20:40:42.913Z,19.62
2018-06-09T20:43:11.574Z,19.63
2018-06-09T20:45:40.445Z,19.54
2018-06-09T20:48:09.257Z,19.49
2018-06-09T20:50:38.849Z,19.51
2018-06-09T20:53:07.942Z,19.42
2018-06-09T20:55:36.741Z,19.37
2018-06-09T20:58:05.511Z,19.33
2018-06-09T21:00:34.255Z,19.32
2018-06-09T21:03:02.993Z,19.41
2018-06-09T21:05:31.593Z,19.34
2018-06-09T21:08:00.293Z,19.50
2018-06-09T21:10:29.957Z,19.50
2018-06-09T21:12:58.680Z,19.54
2018-06-09T21:15:27.337Z,19.44
2018-06-09T21:17:56.027Z,19.40
2018-06-09T21:20:24.629Z,19.35
2018-06-09T21:22:53.319Z,19.31
2018-06-09T21:25:22.112Z,19.12
2018-06-09T21:27:55.911Z,19.23
2018-06-09T21:30:29.624Z,19.24
2018-06-09T21:33:03.365Z,19.23
2018-06-09T21:36:18.737Z,19.21
2018-06-09T21:38:52.492Z,19.22
2018-06-09T21:41:23.217Z,19.15
2018-06-09T21:43:52.030Z,19.02
2018-06-09T21:46:25.986Z,19.01
2018-06-09T21:48:54.651Z,19.04
2018-06-09T21:51:23.332Z,18.89
2018-06-09T21:53:51.985Z,18.83
2018-06-09T21:56:20.656Z,18.77
2018-06-09T21:58:49.299Z,18.75
2018-06-09T22:01:17.961Z,18.73
2018-06-09T22:03:46.754Z,18.67
2018-06-09T22:06:15.394Z,18.67
2018-06-09T22:08:44.617Z,18.64
2018-06-09T22:11:13.368Z,18.66
2018-06-09T22:13:42.099Z,18.64
2018-06-09T22:16:10.831Z,18.61
2018-06-09T22:18:39.414Z,18.63
2018-06-09T22:21:08.134Z,18.54
2018-06-09T22:23:36.734Z,18.53
2018-06-09T22:26:09.412Z,18.60
2018-06-09T22:28:38.061Z,18.59
2018-06-09T22:31:06.709Z,18.53
2018-06-09T22:33:35.404Z,18.48
2018-06-09T22:36:04.164Z,18.45
2018-06-09T22:38:32.905Z,18.51
2018-06-09T22:41:01.594Z,18.44
2018-06-09T22:43:30.320Z,15.88
2018-06-09T22:45:58.938Z,18.33
2018-06-09T22:48:27.593Z,18.29
2018-06-09T22:50:56.454Z,18.28
2018-06-09T22:53:25.189Z,18.35
2018-06-09T22:55:53.854Z,18.34
2018-06-09T22:58:22.486Z,18.28
2018-06-09T23:00:51.800Z,18.24
2018-06-09T23:03:20.509Z,18.22
2018-06-09T23:05:49.208Z,18.21
2018-06-09T23:08:18.056Z,18.12
2018-06-09T23:10:46.756Z,18.05
2018-06-09T23:13:15.360Z,17.97
2018-06-09T23:15:43.953Z,18.02
2018-06-09T23:18:12.697Z,17.97
2018-06-09T23:20:41.323Z,17.98
2018-06-09T23:23:09.989Z,17.99
2018-06-09T23:25:38.580Z,17.92
2018-06-09T23:28:07.307Z,17.81
2018-06-09T23:30:36.110Z,17.78
2018-06-09T23:33:04.744Z,17.81
2018-06-09T23:35:33.572Z,17.86
2018-06-09T23:38:02.305Z,17.87
2018-06-09T23:40:30.886Z,17.90
2018-06-09T23:42:59.576Z,17.87
2018-06-09T23:45:28.255Z,17.85
2018-06-09T23:47:56.929Z,17.83
2018-06-09T23:50:25.639Z,17.78
2018-06-09T23:52:54.376Z,17.73
2018-06-09T23:55:23.061Z,17.69
2018-06-09T23:57:51.863Z,17.66
